Time;durP1;ratioP1;P1;durP2;ratioP2;P2;SDS_P1;SDS_P2;PMS_P1;PMS_P2;Temp;Humidity;BMP_temperature;BMP_pressure;BME280_temperature;BME280_humidity;BME280_pressure;Samples;Min_cycle;Max_cycle;Signal;HPM_P1;HPM_P2
2024/04/21 06:59:35;;;;;;;6.10;4.40;;;;;;;3.70;95.22;100852.60;103353;1292;636252;-81
2024/04/21 07:02:21;;;;;;;6.20;5.00;;;;;;;3.75;95.46;100855.45;105723;1266;95856;-79
2024/04/21 07:05:09;;;;;;;10.90;6.30;;;;;;;3.86;95.61;100855.52;106148;1262;95752;-81
2024/04/21 07:07:55;;;;;;;8.70;5.50;;;;;;;3.98;95.24;100856.00;106107;1258;99875;-82
2024/04/21 07:10:41;;;;;;;8.50;6.00;;;;;;;4.06;94.63;100853.52;105983;1257;100305;-80
2024/04/21 07:13:27;;;;;;;8.30;5.60;;;;;;;4.14;94.41;100855.16;106102;1256;186425;-78
2024/04/21 07:16:12;;;;;;;7.30;5.40;;;;;;;4.20;93.93;100856.89;105770;1262;95893;-79
2024/04/21 07:18:58;;;;;;;7.90;5.50;;;;;;;4.27;93.96;100850.75;105380;1257;95974;-80
2024/04/21 07:21:44;;;;;;;8.70;6.20;;;;;;;4.36;93.80;100847.36;105847;1259;98773;-81
2024/04/21 07:24:31;;;;;;;9.30;6.40;;;;;;;4.45;93.50;100850.26;106441;1257;99858;-82
2024/04/21 07:27:16;;;;;;;8.10;5.30;;;;;;;4.52;93.23;100845.49;106762;1263;98960;-83
2024/04/21 07:30:02;;;;;;;9.40;6.80;;;;;;;4.60;93.37;100843.42;106292;1262;95840;-82
2024/04/21 07:32:48;;;;;;;8.90;5.60;;;;;;;4.71;93.10;100842.77;106274;1257;97139;-79
2024/04/21 07:35:33;;;;;;;10.10;6.10;;;;;;;4.80;92.74;100839.94;106419;1258;101357;-81
2024/04/21 07:38:19;;;;;;;8.60;5.10;;;;;;;4.88;92.78;100838.64;106376;1257;100344;-80
2024/04/21 07:41:05;;;;;;;7.40;6.10;;;;;;;4.97;92.55;100837.93;106224;1257;97743;-82
2024/04/21 07:43:50;;;;;;;12.00;5.70;;;;;;;5.06;92.32;100829.81;106302;1263;96608;-86
2024/04/21 07:46:36;;;;;;;6.20;5.20;;;;;;;5.17;92.26;100829.41;106325;1257;96656;-81
2024/04/21 07:49:22;;;;;;;9.90;5.90;;;;;;;5.27;91.70;100822.13;106433;1257;101178;-83
2024/04/21 07:52:10;;;;;;;8.00;6.00;;;;;;;5.32;91.39;100829.86;106289;1260;99758;-87
2024/04/21 07:54:56;;;;;;;10.80;5.70;;;;;;;5.39;91.56;100830.98;106318;1260;98976;-85
2024/04/21 07:57:42;;;;;;;8.70;5.30;;;;;;;5.45;90.98;100833.94;106582;1259;95821;-79
2024/04/21 08:00:27;;;;;;;9.60;6.30;;;;;;;5.52;91.17;100830.27;106493;1262;97140;-83
2024/04/21 08:03:13;;;;;;;8.50;5.70;;;;;;;5.58;90.57;100827.91;105844;1262;101296;-82
2024/04/21 08:06:00;;;;;;;7.20;4.80;;;;;;;5.64;90.81;100833.23;106066;1261;101439;-87
2024/04/21 08:08:46;;;;;;;7.20;4.90;;;;;;;5.72;90.38;100832.15;106070;1263;98996;-83
2024/04/21 08:11:33;;;;;;;7.50;5.70;;;;;;;5.83;90.71;100831.46;106165;1260;96626;-82
2024/04/21 08:14:19;;;;;;;10.50;6.10;;;;;;;5.98;90.38;100834.61;105985;1256;95970;-79
2024/04/21 08:17:04;;;;;;;7.90;5.40;;;;;;;6.04;89.15;100836.43;106216;1257;101029;-81
2024/04/21 08:19:49;;;;;;;8.20;5.80;;;;;;;6.08;88.53;100836.96;105846;1256;99149;-82
2024/04/21 08:22:36;;;;;;;8.30;5.20;;;;;;;6.13;87.74;100841.39;105944;1257;97718;-83
2024/04/21 08:25:22;;;;;;;6.60;5.60;;;;;;;6.16;87.21;100841.63;106270;1257;96613;-80
2024/04/21 08:28:08;;;;;;;8.80;5.00;;;;;;;6.18;87.06;100839.61;106185;1256;97303;-82
2024/04/21 08:30:54;;;;;;;6.10;4.90;;;;;;;6.26;87.25;100834.42;106008;1256;101158;-80
2024/04/21 08:33:40;;;;;;;6.00;5.00;;;;;;;6.37;87.44;100834.03;105519;1257;101636;-82
2024/04/21 08:36:26;;;;;;;8.00;5.10;;;;;;;6.45;86.47;100842.47;106228;1262;97898;-82
2024/04/21 08:39:13;;;;;;;7.10;5.50;;;;;;;6.44;85.55;100850.57;106171;1258;97281;-85
2024/04/21 08:41:58;;;;;;;6.80;5.00;;;;;;;6.44;85.40;100846.29;106208;1257;95946;-82
2024/04/21 08:44:44;;;;;;;6.00;5.10;;;;;;;6.44;85.31;100847.88;106108;1256;100076;-82
2024/04/21 08:47:32;;;;;;;5.60;4.20;;;;;;;6.46;85.70;100849.46;106034;1257;100568;-86
2024/04/21 08:50:19;;;;;;;7.40;5.40;;;;;;;6.47;84.89;100853.61;106101;1259;98887;-86
2024/04/21 08:53:05;;;;;;;5.00;4.30;;;;;;;6.43;84.61;100858.05;106042;1263;96509;-86
2024/04/21 08:55:52;;;;;;;7.20;4.70;;;;;;;6.39;83.84;100864.52;106191;1256;96524;-85
2024/04/21 08:58:41;;;;;;;6.80;4.80;;;;;;;6.35;84.22;100857.65;106436;1261;102323;-84
2024/04/21 09:01:28;;;;;;;7.20;4.50;;;;;;;6.38;85.13;100853.83;106032;1257;101335;-85
2024/04/21 09:04:15;;;;;;;7.30;5.00;;;;;;;6.44;84.67;100851.89;106046;1256;99067;-85
2024/04/21 09:07:02;;;;;;;5.50;4.30;;;;;;;6.46;84.20;100849.27;106044;1262;96679;-85
2024/04/21 09:09:47;;;;;;;7.10;4.40;;;;;;;6.47;84.50;100851.50;105984;1257;98286;-85
2024/04/21 09:12:34;;;;;;;6.20;4.50;;;;;;;6.50;84.35;100851.99;106223;1256;101159;-85
2024/04/21 09:15:20;;;;;;;7.40;4.60;;;;;;;6.55;84.51;100852.37;106060;1259;100349;-86
2024/04/21 09:18:06;;;;;;;6.40;4.90;;;;;;;6.59;84.19;100848.47;105903;1263;99898;-85
2024/04/21 09:20:53;;;;;;;5.70;4.20;;;;;;;6.62;84.51;100845.84;106136;1259;96614;-86
2024/04/21 09:23:40;;;;;;;5.90;5.00;;;;;;;6.66;84.36;100840.60;106367;1259;96620;-82
2024/04/21 09:26:27;;;;;;;5.10;4.10;;;;;;;6.68;83.95;100834.60;106311;1256;100822;-84
2024/04/21 09:29:12;;;;;;;6.10;4.10;;;;;;;6.69;83.95;100835.36;106246;1253;99215;-83
2024/04/21 09:31:58;;;;;;;6.60;4.40;;;;;;;6.73;84.00;100839.40;106732;1254;99170;-81
2024/04/21 09:34:44;;;;;;;6.30;4.50;;;;;;;6.74;83.56;100836.54;106437;1256;96606;-84
2024/04/21 09:37:30;;;;;;;6.80;4.40;;;;;;;6.74;83.34;100831.25;106199;1253;97069;-83
2024/04/21 09:40:17;;;;;;;4.50;3.60;;;;;;;6.74;83.33;100830.38;106335;1260;101349;-82
2024/04/21 09:43:07;;;;;;;5.50;3.60;;;;;;;6.77;83.52;100830.73;106355;1256;100384;-84
2024/04/21 09:45:55;;;;;;;5.40;3.40;;;;;;;6.82;83.66;100829.54;106137;1253;98520;-83
2024/04/21 09:48:42;;;;;;;6.30;4.00;;;;;;;6.85;83.58;100828.19;106411;1259;96562;-84
2024/04/21 09:51:30;;;;;;;5.40;3.90;;;;;;;6.86;83.19;100830.33;106223;1258;96605;-80
2024/04/21 09:54:19;;;;;;;6.90;4.20;;;;;;;6.88;82.81;100826.44;106561;1257;101285;-81
2024/04/21 09:57:15;;;;;;;6.50;3.80;;;;;;;6.89;82.82;100830.64;106540;1256;99102;-81
2024/04/21 10:00:04;;;;;;;4.90;3.90;;;;;;;6.89;82.55;100832.05;106505;1260;99887;-81
2024/04/21 10:02:53;;;;;;;6.20;4.10;;;;;;;6.88;82.32;100831.44;105919;1253;96617;-80
2024/04/21 10:05:39;;;;;;;4.60;3.50;;;;;;;6.90;82.36;100830.35;106471;1257;97135;-81
2024/04/21 10:08:27;;;;;;;4.30;3.80;;;;;;;6.94;82.58;100828.49;106473;1253;99990;-81
2024/04/21 10:11:12;;;;;;;5.10;3.80;;;;;;;6.96;82.20;100830.92;106442;1257;99100;-82
2024/04/21 10:14:01;;;;;;;6.50;4.50;;;;;;;6.99;82.26;100826.56;106400;1254;98608;-81
2024/04/21 10:16:47;;;;;;;5.50;3.80;;;;;;;7.02;82.28;100826.45;106753;1259;96730;-80
2024/04/21 10:19:33;;;;;;;6.70;4.50;;;;;;;7.05;82.17;100820.95;106592;1253;95850;-81
2024/04/21 10:22:19;;;;;;;5.60;4.20;;;;;;;7.03;81.32;100822.96;106616;1253;100733;-82
2024/04/21 10:25:05;;;;;;;6.80;4.00;;;;;;;6.99;81.28;100824.23;106610;1260;101456;-81
2024/04/21 10:28:07;;;;;;;4.50;3.40;;;;;;;7.00;81.46;100824.48;106494;1261;98407;-81
2024/04/21 10:31:26;;;;;;;3.70;3.20;;;;;;;7.06;81.54;100822.84;106657;1253;96630;-82
2024/04/21 10:34:12;;;;;;;5.50;4.50;;;;;;;7.08;81.26;100822.92;106350;1253;96656;-81
2024/04/21 10:36:58;;;;;;;5.30;3.80;;;;;;;7.09;80.83;100825.16;106470;1253;100047;-80
2024/04/21 10:39:43;;;;;;;5.20;3.60;;;;;;;7.05;80.34;100825.41;106533;1254;100438;-82
2024/04/21 10:42:34;;;;;;;4.90;3.80;;;;;;;7.02;80.33;100828.75;106446;1259;97465;-81
2024/04/21 10:45:21;;;;;;;4.30;3.50;;;;;;;7.00;80.18;100824.98;106567;1258;96729;-81
2024/04/21 10:48:08;;;;;;;4.90;3.60;;;;;;;7.00;80.31;100826.47;106629;1253;96426;-81
2024/04/21 10:50:56;;;;;;;6.70;3.60;;;;;;;7.02;80.95;100825.55;106355;1253;102259;-79
2024/04/21 10:53:42;;;;;;;5.40;4.10;;;;;;;7.07;81.31;100823.61;106616;1253;99569;-81
2024/04/21 10:56:27;;;;;;;5.70;3.70;;;;;;;7.09;80.65;100827.48;106454;1261;98999;-81
2024/04/21 10:59:13;;;;;;;8.50;4.10;;;;;;;7.10;80.88;100835.37;106569;1261;96597;-82
2024/04/21 11:01:59;;;;;;;8.00;4.00;;;;;;;7.10;80.72;100834.32;106488;1254;97316;-86
2024/04/21 11:04:44;;;;;;;5.10;3.70;;;;;;;7.09;80.63;100840.59;106131;1259;100141;-86
2024/04/21 11:07:33;;;;;;;8.30;4.30;;;;;;;7.10;80.88;100839.95;106266;1253;101456;-85
2024/04/21 11:10:19;;;;;;;4.80;3.40;;;;;;;7.12;80.57;100838.19;106324;1253;98911;-82
2024/04/21 11:13:09;;;;;;;6.20;3.90;;;;;;;7.11;80.29;100837.73;106565;1260;96532;-82
2024/04/21 11:15:54;;;;;;;4.00;3.30;;;;;;;7.14;80.87;100838.34;106476;1254;97039;-82
2024/04/21 11:18:40;;;;;;;4.10;3.20;;;;;;;7.18;80.80;100842.19;106499;1259;101308;-82
2024/04/21 11:21:26;;;;;;;4.90;3.60;;;;;;;7.19;80.19;100842.55;106417;1262;100326;-80
2024/04/21 11:24:12;;;;;;;6.40;2.90;;;;;;;7.20;79.91;100847.02;105920;1253;99113;-81
2024/04/21 11:26:58;;;;;;;4.60;3.50;;;;;;;7.20;79.65;100842.97;106556;1253;97235;-80
2024/04/21 11:29:46;;;;;;;7.70;3.70;;;;;;;7.22;79.99;100844.08;106565;1258;97129;-81
2024/04/21 11:32:32;;;;;;;5.10;3.40;;;;;;;7.24;80.17;100846.15;106351;1253;99938;-81
2024/04/21 11:35:18;;;;;;;3.80;3.20;;;;;;;7.23;79.98;100850.70;106570;1253;99083;-80
2024/04/21 11:38:04;;;;;;;6.40;3.90;;;;;;;7.20;79.82;100853.65;106516;1253;98968;-81
2024/04/21 11:40:50;;;;;;;4.00;3.20;;;;;;;7.20;80.06;100855.08;106526;1258;97934;-80
2024/04/21 11:43:36;;;;;;;3.80;3.40;;;;;;;7.24;80.32;100854.37;106535;1260;97900;-81
2024/04/21 11:46:22;;;;;;;4.80;3.70;;;;;;;7.26;80.33;100850.88;106636;1259;101412;-81
2024/04/21 11:49:08;;;;;;;4.00;3.50;;;;;;;7.28;80.09;100851.20;106543;1258;99527;-80
2024/04/21 11:51:54;;;;;;;5.90;3.10;;;;;;;7.30;80.24;100847.27;106325;1263;99040;-80
2024/04/21 11:54:40;;;;;;;5.00;3.30;;;;;;;7.31;79.93;100848.09;106548;1258;98651;-80
2024/04/21 11:57:27;;;;;;;6.30;3.90;;;;;;;7.32;79.99;100848.18;106383;1260;98963;-81
2024/04/21 12:00:14;;;;;;;5.50;3.20;;;;;;;7.31;79.32;100848.60;106462;1253;101325;-81
2024/04/21 12:02:59;;;;;;;3.90;3.20;;;;;;;7.29;78.84;100848.13;106729;1253;99754;-81
2024/04/21 12:05:46;;;;;;;3.60;3.10;;;;;;;7.27;78.54;100845.99;106478;1253;99002;-80
2024/04/21 12:08:32;;;;;;;5.70;3.40;;;;;;;7.29;78.76;100849.36;106361;1262;97878;-84
2024/04/21 12:11:19;;;;;;;4.80;3.40;;;;;;;7.29;78.78;100845.20;106099;1253;97947;-82
2024/04/21 12:14:24;;;;;;;5.90;3.00;;;;;;;7.29;78.93;100844.66;106616;1253;101406;-86
2024/04/21 12:17:16;;;;;;;4.60;3.30;;;;;;;7.30;79.25;100844.94;106291;1253;101524;-84
2024/04/21 12:20:03;;;;;;;6.00;4.00;;;;;;;7.30;78.78;100844.30;106164;1254;100000;-82
2024/04/21 12:22:50;;;;;;;6.20;4.00;;;;;;;7.28;78.53;100846.46;106327;1253;98024;-83
2024/04/21 12:25:39;;;;;;;5.50;3.60;;;;;;;7.26;78.06;100847.19;106238;1253;97976;-84
2024/04/21 12:28:25;;;;;;;11.90;4.00;;;;;;;7.23;78.15;100844.27;106403;1260;102531;-84
2024/04/21 12:31:13;;;;;;;5.10;2.80;;;;;;;7.23;78.14;100840.77;106381;1253;99291;-85
2024/04/21 12:33:59;;;;;;;5.40;3.30;;;;;;;7.23;78.16;100841.21;106278;1253;98534;-84
2024/04/21 12:36:44;;;;;;;4.20;3.50;;;;;;;7.25;78.10;100843.67;106225;1260;98062;-80
2024/04/21 12:39:30;;;;;;;3.50;3.00;;;;;;;7.26;78.07;100843.58;106302;1256;98402;-85
2024/04/21 12:42:16;;;;;;;4.60;3.70;;;;;;;7.28;78.34;100844.10;106506;1253;101339;-81
2024/04/21 12:45:02;;;;;;;6.70;3.60;;;;;;;7.31;78.26;100846.04;106491;1253;99118;-82
2024/04/21 12:47:48;;;;;;;4.30;3.60;;;;;;;7.33;77.99;100850.35;106409;1259;98765;-81
2024/04/21 12:50:34;;;;;;;5.50;3.90;;;;;;;7.33;78.40;100846.92;106529;1253;97967;-80
2024/04/21 12:53:19;;;;;;;5.30;3.70;;;;;;;7.35;78.73;100845.36;106489;1259;98549;-78
2024/04/21 12:56:05;;;;;;;5.70;3.40;;;;;;;7.36;78.66;100843.10;105786;1254;102932;-80
2024/04/21 12:58:50;;;;;;;11.90;3.50;;;;;;;7.38;79.18;100845.91;106785;1256;100331;-83
2024/04/21 13:01:36;;;;;;;4.50;4.00;;;;;;;7.38;78.91;100854.58;106896;1254;98495;-84
2024/04/21 13:04:21;;;;;;;5.20;3.50;;;;;;;7.29;78.96;100852.36;106437;1254;97945;-83
2024/04/21 13:07:07;;;;;;;3.90;3.20;;;;;;;7.26;79.57;100854.85;106495;1253;98457;-83
2024/04/21 13:09:53;;;;;;;5.60;3.90;;;;;;;7.26;80.55;100851.81;106348;1253;103619;-83
2024/04/21 13:12:39;;;;;;;5.60;3.80;;;;;;;7.26;80.82;100854.48;106478;1253;100227;-82
2024/04/21 13:15:28;;;;;;;6.00;3.80;;;;;;;7.23;81.09;100856.69;106361;1261;99072;-83
2024/04/21 13:18:14;;;;;;;7.60;4.00;;;;;;;7.21;81.61;100856.59;106343;1254;98608;-84
2024/04/21 13:21:00;;;;;;;6.60;3.90;;;;;;;7.19;81.88;100856.74;106449;1253;98499;-84
2024/04/21 13:23:46;;;;;;;5.40;3.60;;;;;;;7.21;82.76;100861.33;106322;1259;102092;-84
2024/04/21 13:26:31;;;;;;;5.20;3.30;;;;;;;7.22;83.07;100854.50;106310;1253;99129;-84
2024/04/21 13:29:17;;;;;;;4.60;3.40;;;;;;;7.20;83.05;100862.73;106498;1256;98927;-83
2024/04/21 13:32:04;;;;;;;4.60;3.50;;;;;;;7.17;83.33;100861.25;106208;1262;97878;-82
2024/04/21 13:34:50;;;;;;;9.20;3.80;;;;;;;7.14;83.47;100862.84;106462;1261;98017;-78
2024/04/21 13:37:36;;;;;;;10.00;3.70;;;;;;;7.13;83.99;100866.81;105836;1254;101629;-81
2024/04/21 13:40:21;;;;;;;8.50;3.80;;;;;;;7.12;84.48;100863.23;106591;1254;99162;-81
2024/04/21 13:43:07;;;;;;;6.60;3.40;;;;;;;7.10;84.75;100862.39;106623;1253;98466;-82
2024/04/21 13:45:52;;;;;;;5.00;3.20;;;;;;;7.07;84.71;100863.38;106440;1254;97974;-83
2024/04/21 13:48:38;;;;;;;5.70;3.50;;;;;;;7.07;84.99;100867.94;106511;1259;98504;-79
2024/04/21 13:51:25;;;;;;;5.50;3.20;;;;;;;7.06;84.98;100869.69;106248;1256;101347;-82
2024/04/21 13:54:11;;;;;;;6.90;3.70;;;;;;;7.05;85.32;100867.64;106453;1254;99781;-84
2024/04/21 13:56:57;;;;;;;5.00;3.60;;;;;;;7.02;85.26;100868.84;106094;1262;99088;-81
2024/04/21 13:59:42;;;;;;;6.10;4.10;;;;;;;7.03;85.80;100872.14;106143;1254;98070;-80
2024/04/21 14:02:28;;;;;;;4.70;3.20;;;;;;;7.06;86.08;100872.55;106347;1259;98722;-79
2024/04/21 14:05:15;;;;;;;5.40;3.70;;;;;;;7.07;85.68;100870.80;106363;1254;102554;-83
2024/04/21 14:08:00;;;;;;;3.90;3.10;;;;;;;7.04;85.47;100874.88;106167;1253;101485;-84
2024/04/21 14:10:47;;;;;;;5.50;3.10;;;;;;;7.04;85.58;100870.58;106561;1254;97949;-86
2024/04/21 14:13:32;;;;;;;4.90;3.20;;;;;;;7.08;85.87;100870.23;106026;1262;97972;-83
2024/04/21 14:16:19;;;;;;;7.50;3.50;;;;;;;7.11;85.49;100872.73;106149;1259;96189;-83
2024/04/21 14:19:05;;;;;;;5.10;3.80;;;;;;;7.09;85.11;100876.13;106174;1253;102484;-84
2024/04/21 14:21:51;;;;;;;4.00;3.50;;;;;;;7.09;85.07;100877.16;106278;1254;99511;-84
2024/04/21 14:24:37;;;;;;;3.30;2.80;;;;;;;7.07;84.87;100877.76;106184;1254;98855;-81
2024/04/21 14:27:22;;;;;;;4.70;3.30;;;;;;;7.00;84.53;100876.70;106423;1253;98114;-79
2024/04/21 14:30:08;;;;;;;3.90;3.00;;;;;;;7.00;85.08;100876.88;106115;1258;98398;-79
2024/04/21 14:32:54;;;;;;;5.60;3.00;;;;;;;6.99;84.98;100880.20;106133;1254;101374;-79
2024/04/21 14:35:41;;;;;;;4.40;2.40;;;;;;;6.96;84.79;100881.69;106473;1259;99163;-82
2024/04/21 14:38:27;;;;;;;3.80;3.00;;;;;;;6.94;84.68;100882.45;106451;1253;100059;-83
2024/04/21 14:41:14;;;;;;;5.30;3.30;;;;;;;6.93;84.62;100889.08;106453;1254;98064;-80
2024/04/21 14:44:00;;;;;;;4.40;2.50;;;;;;;6.93;83.96;100889.70;106336;1254;98411;-79
2024/04/21 14:46:46;;;;;;;4.30;3.30;;;;;;;6.85;83.62;100890.30;106306;1261;102410;-82
2024/04/21 14:49:56;;;;;;;5.00;2.20;;;;;;;6.80;83.74;100889.53;106531;1260;99644;-84
2024/04/21 14:52:46;;;;;;;4.20;2.60;;;;;;;6.81;84.16;100891.30;106315;1259;107780;-83
2024/04/21 14:55:45;;;;;;;4.80;3.20;;;;;;;6.78;84.08;100886.73;106214;1259;98582;-82
2024/04/21 14:58:31;;;;;;;4.30;3.30;;;;;;;6.78;84.42;100890.17;105990;1264;98425;-82
2024/04/21 15:01:17;;;;;;;3.30;2.60;;;;;;;6.78;84.40;100890.67;105877;1264;109180;-82
2024/04/21 15:04:03;;;;;;;5.10;2.90;;;;;;;6.76;84.03;100889.63;106120;1259;101446;-82
2024/04/21 15:06:49;;;;;;;4.00;3.20;;;;;;;6.75;84.01;100888.36;106150;1256;98529;-80
2024/04/21 15:09:34;;;;;;;4.40;3.00;;;;;;;6.74;83.97;100888.61;106194;1256;97785;-81
2024/04/21 15:12:20;;;;;;;4.60;3.20;;;;;;;6.76;84.22;100891.20;106369;1256;97897;-81
2024/04/21 15:15:06;;;;;;;3.90;2.60;;;;;;;6.78;83.95;100887.48;106240;1261;102738;-82
2024/04/21 15:17:53;;;;;;;3.90;2.70;;;;;;;6.74;83.53;100888.11;106086;1258;100367;-81
2024/04/21 15:20:39;;;;;;;4.90;3.10;;;;;;;6.70;83.62;100886.69;105955;1263;97926;-82
2024/04/21 15:23:24;;;;;;;5.00;2.80;;;;;;;6.67;83.14;100890.75;106020;1257;97972;-82
2024/04/21 15:26:11;;;;;;;3.70;2.90;;;;;;;6.61;83.30;100887.95;106173;1259;98420;-82
2024/04/21 15:28:57;;;;;;;4.20;2.60;;;;;;;6.60;83.55;100889.52;106183;1256;103503;-83
2024/04/21 15:31:43;;;;;;;4.30;2.70;;;;;;;6.59;83.56;100889.45;106165;1261;99122;-82
2024/04/21 15:34:28;;;;;;;4.50;3.20;;;;;;;6.59;83.39;100889.83;106248;1260;97980;-82
2024/04/21 15:37:14;;;;;;;5.10;2.90;;;;;;;6.58;83.37;100884.00;106040;1260;97890;-82
2024/04/21 15:39:59;;;;;;;7.00;2.80;;;;;;;6.58;83.44;100881.90;106138;1257;97904;-83
2024/04/21 15:42:45;;;;;;;7.00;3.10;;;;;;;6.60;83.69;100880.85;106066;1259;101342;-83
2024/04/21 15:45:31;;;;;;;3.60;2.40;;;;;;;6.62;83.41;100876.54;106152;1254;101320;-82
2024/04/21 15:48:17;;;;;;;3.50;2.50;;;;;;;6.62;83.32;100878.27;106186;1257;99193;-83
2024/04/21 15:51:07;;;;;;;4.40;2.70;;;;;;;6.65;83.07;100881.38;105920;1259;98083;-82
2024/04/21 15:53:52;;;;;;;4.00;3.00;;;;;;;6.65;83.15;100880.42;106112;1254;97797;-81
2024/04/21 15:56:38;;;;;;;5.50;2.90;;;;;;;6.67;83.34;100877.93;106142;1254;102482;-83
2024/04/21 15:59:24;;;;;;;5.20;2.80;;;;;;;6.67;83.21;100877.00;106326;1253;100299;-83
2024/04/21 16:02:10;;;;;;;4.00;2.80;;;;;;;6.67;82.97;100882.01;106190;1260;100059;-84
2024/04/21 16:04:58;;;;;;;4.10;2.90;;;;;;;6.66;82.73;100881.10;106180;1263;97980;-82
2024/04/21 16:07:44;;;;;;;6.80;3.30;;;;;;;6.66;82.94;100878.63;106299;1259;98402;-83
2024/04/21 16:10:30;;;;;;;4.20;2.40;;;;;;;6.65;82.92;100883.48;106319;1254;102609;-82
2024/04/21 16:13:16;;;;;;;5.20;3.00;;;;;;;6.63;83.06;100884.54;106353;1259;99151;-82
2024/04/21 16:16:01;;;;;;;5.30;3.00;;;;;;;6.63;82.97;100884.08;106366;1260;99203;-81
2024/04/21 16:18:47;;;;;;;4.70;2.80;;;;;;;6.64;83.06;100889.08;106317;1259;96508;-82
2024/04/21 16:21:33;;;;;;;4.80;3.20;;;;;;;6.66;82.79;100888.18;106550;1259;98086;-84
2024/04/21 16:24:19;;;;;;;3.60;2.70;;;;;;;6.65;82.46;100887.98;106369;1255;103173;-83
2024/04/21 16:27:05;;;;;;;3.40;2.80;;;;;;;6.63;82.23;100892.26;106404;1254;100037;-80
2024/04/21 16:29:51;;;;;;;6.30;2.70;;;;;;;6.62;82.33;100892.70;106501;1259;97952;-81
2024/04/21 16:32:39;;;;;;;3.90;2.70;;;;;;;6.64;82.43;100896.39;106605;1253;97958;-85
2024/04/21 16:35:28;;;;;;;3.90;2.80;;;;;;;6.65;82.33;100895.60;106498;1259;97842;-84
2024/04/21 16:38:14;;;;;;;5.30;3.10;;;;;;;6.64;82.17;100898.32;106574;1260;102516;-85
2024/04/21 16:41:00;;;;;;;4.60;3.00;;;;;;;6.64;81.96;100896.77;106328;1259;99095;-83
2024/04/21 16:43:47;;;;;;;6.50;2.70;;;;;;;6.62;81.49;100898.70;106054;1260;98954;-83
2024/04/21 16:46:33;;;;;;;2.80;2.40;;;;;;;6.61;80.76;100898.68;106253;1260;99189;-84
2024/04/21 16:49:26;;;;;;;3.40;2.30;;;;;;;6.56;80.12;100903.40;106336;1258;97840;-86
2024/04/21 16:52:13;;;;;;;6.10;2.50;;;;;;;6.49;79.31;100903.64;106379;1263;103542;-84
2024/04/21 16:54:59;;;;;;;3.80;2.30;;;;;;;6.42;79.19;100904.29;106332;1260;100347;-83
2024/04/21 16:57:55;;;;;;;2.80;2.20;;;;;;;6.37;78.69;100908.18;106393;1254;99979;-83
2024/04/21 17:00:41;;;;;;;4.30;2.10;;;;;;;6.33;78.40;100914.13;106291;1262;98000;-82
2024/04/21 17:03:27;;;;;;;5.10;2.60;;;;;;;6.28;78.44;100911.80;106297;1253;97939;-82
2024/04/21 17:06:18;;;;;;;3.50;2.10;;;;;;;6.23;78.10;100915.81;106170;1258;102572;-81
2024/04/21 17:09:05;;;;;;;2.50;1.90;;;;;;;6.18;78.05;100913.90;106314;1260;100301;-84
2024/04/21 17:11:52;;;;;;;3.20;1.80;;;;;;;6.15;78.00;100923.70;106238;1260;98987;-83
2024/04/21 17:14:38;;;;;;;2.60;2.20;;;;;;;6.12;77.81;100926.83;106251;1254;99044;-82
2024/04/21 17:17:23;;;;;;;2.30;1.80;;;;;;;6.10;77.73;100930.03;106250;1260;96321;-81
2024/04/21 17:20:09;;;;;;;3.10;2.20;;;;;;;6.09;78.10;100931.01;106222;1254;102604;-82
2024/04/21 17:22:54;;;;;;;3.40;1.80;;;;;;;6.09;77.93;100932.23;106216;1263;99110;-85
2024/04/21 17:25:40;;;;;;;2.30;2.00;;;;;;;6.07;77.76;100934.52;106334;1254;98972;-82
2024/04/21 17:28:26;;;;;;;3.80;2.00;;;;;;;6.06;77.99;100937.10;106352;1267;98564;-81
2024/04/21 17:31:11;;;;;;;2.80;1.80;;;;;;;6.05;77.82;100938.84;106241;1259;98474;-82
2024/04/21 17:33:57;;;;;;;3.20;2.00;;;;;;;6.04;77.93;100942.60;106205;1260;102065;-81
2024/04/21 17:36:42;;;;;;;4.60;2.10;;;;;;;6.04;77.57;100945.86;106195;1260;99975;-82
2024/04/21 17:39:28;;;;;;;5.20;2.50;;;;;;;6.02;77.66;100949.61;106112;1259;98087;-80
2024/04/21 17:42:14;;;;;;;3.50;2.10;;;;;;;6.00;77.37;100951.86;106212;1260;97995;-82
2024/04/21 17:44:59;;;;;;;4.50;2.10;;;;;;;5.97;77.15;100951.13;106268;1259;97905;-82
2024/04/21 17:47:45;;;;;;;3.60;1.80;;;;;;;5.96;77.18;100951.59;106190;1254;101911;-81
2024/04/21 17:50:30;;;;;;;3.90;1.90;;;;;;;5.95;77.15;100954.02;105778;1255;100332;-81
2024/04/21 17:53:16;;;;;;;3.40;2.10;;;;;;;5.93;76.97;100958.39;106190;1254;99526;-82
2024/04/21 17:56:02;;;;;;;3.60;2.30;;;;;;;5.91;76.78;100958.33;106232;1257;98161;-81
2024/04/21 17:58:48;;;;;;;3.30;2.00;;;;;;;5.89;76.67;100962.25;106282;1258;98060;-82
2024/04/21 18:01:36;;;;;;;4.80;2.00;;;;;;;5.86;76.30;100964.95;106566;1258;101362;-86
2024/04/21 18:04:21;;;;;;;2.60;2.10;;;;;;;5.84;76.45;100968.34;106641;1262;100526;-84
2024/04/21 18:07:07;;;;;;;3.20;1.80;;;;;;;5.84;76.46;100968.90;106443;1254;99016;-82
2024/04/21 18:09:53;;;;;;;2.40;1.90;;;;;;;5.84;76.28;100971.17;106342;1254;97853;-83
2024/04/21 18:12:39;;;;;;;3.90;2.10;;;;;;;5.84;76.08;100971.95;106163;1260;97994;-80
2024/04/21 18:15:24;;;;;;;3.40;2.00;;;;;;;5.83;76.46;100976.39;106282;1254;101343;-83
2024/04/21 18:18:10;;;;;;;4.80;2.40;;;;;;;5.83;76.36;100977.79;106198;1259;100348;-84
2024/04/21 18:20:55;;;;;;;2.50;2.10;;;;;;;5.82;75.94;100978.45;106116;1270;98975;-80
2024/04/21 18:23:40;;;;;;;3.90;1.80;;;;;;;5.80;76.17;100984.11;106292;1260;98081;-80
2024/04/21 18:26:26;;;;;;;3.30;2.30;;;;;;;5.79;76.44;100984.57;106343;1255;98404;-81
2024/04/21 18:29:11;;;;;;;4.60;2.30;;;;;;;5.78;76.21;100987.73;106421;1257;102628;-81
2024/04/21 18:31:57;;;;;;;2.80;2.00;;;;;;;5.75;76.62;100986.34;106258;1258;99105;-81
2024/04/21 18:34:42;;;;;;;4.50;2.10;;;;;;;5.75;76.53;100984.67;106282;1254;98602;-81
2024/04/21 18:37:28;;;;;;;3.10;2.10;;;;;;;5.74;76.55;100989.38;106305;1261;97990;-83
2024/04/21 18:40:14;;;;;;;4.20;2.00;;;;;;;5.72;76.64;100988.83;106295;1258;98073;-82
2024/04/21 18:43:00;;;;;;;6.00;2.40;;;;;;;5.69;76.27;100991.08;106841;1254;102696;-80
2024/04/21 18:45:45;;;;;;;6.70;2.80;;;;;;;5.64;75.77;100989.41;106823;1257;99242;-82
2024/04/21 18:48:31;;;;;;;5.80;2.60;;;;;;;5.59;75.55;100986.33;106808;1260;99241;-85
2024/04/21 18:51:19;;;;;;;9.10;2.70;;;;;;;5.56;75.55;100990.03;106756;1257;97913;-89
2024/04/21 18:54:08;;;;;;;4.50;2.50;;;;;;;5.53;75.74;100991.89;106199;1263;98054;-83
2024/04/21 18:56:53;;;;;;;4.60;2.40;;;;;;;5.53;76.01;100989.83;106294;1254;101455;-84
2024/04/21 18:59:39;;;;;;;3.60;2.20;;;;;;;5.51;75.88;100989.60;106209;1258;100338;-84
2024/04/21 19:02:25;;;;;;;3.60;2.30;;;;;;;5.49;75.63;100991.56;106273;1254;98034;-85
2024/04/21 19:05:11;;;;;;;6.30;2.50;;;;;;;5.46;75.70;100997.53;106167;1260;97947;-83
2024/04/21 19:07:57;;;;;;;6.50;2.50;;;;;;;5.41;75.35;100997.63;106124;1258;97980;-85
2024/04/21 19:10:46;;;;;;;5.80;2.50;;;;;;;5.37;75.59;100997.33;106325;1255;101375;-86
2024/04/21 19:13:46;;;;;;;4.60;3.20;;;;;;;5.34;75.44;100995.83;106070;1254;397788;-84
2024/04/21 19:16:39;;;;;;;4.10;2.60;;;;;;;5.30;75.49;100995.00;106177;1260;97966;-84
2024/04/21 19:19:34;;;;;;;6.90;3.00;;;;;;;5.27;75.18;100996.13;106224;1254;97891;-85
2024/04/21 19:23:31;;;;;;;4.40;2.10;;;;;;;5.25;75.41;101000.75;103186;1293;634578;-82
2024/04/21 19:26:20;;;;;;;5.80;2.70;;;;;;;5.22;75.65;100999.45;105485;1272;95977;-83
2024/04/21 19:29:15;;;;;;;4.20;2.60;;;;;;;5.20;75.54;101000.20;105575;1266;95935;-83
2024/04/21 19:32:01;;;;;;;4.00;2.70;;;;;;;5.16;75.37;101000.56;105473;1272;98643;-84
2024/04/21 19:34:56;;;;;;;7.40;2.60;;;;;;;5.10;75.04;100998.75;105471;1272;100377;-84
2024/04/21 19:37:41;;;;;;;5.20;2.30;;;;;;;5.06;75.19;100999.88;105400;1263;182394;-84
2024/04/21 19:40:34;;;;;;;4.30;2.50;;;;;;;5.04;75.19;101001.27;105720;1267;95872;-84
2024/04/21 19:43:19;;;;;;;4.30;2.40;;;;;;;5.01;75.15;101001.23;105602;1266;95900;-84
2024/04/21 19:46:06;;;;;;;5.70;2.20;;;;;;;4.98;75.00;101001.86;105559;1264;99962;-84
2024/04/21 19:48:57;;;;;;;3.40;2.30;;;;;;;4.95;75.15;100997.56;105529;1266;100511;-85
2024/04/21 19:51:43;;;;;;;4.00;2.50;;;;;;;4.91;75.05;101001.67;105896;1262;97755;-84